San Perlita, Texas
Current Conditions -  °F | °C
As of 3:52 PM on Monday 20 Oct 2014 (Local Time) from KHRL Reporting Station
Few Clouds Few Clouds  
Wind Chill: 86°   Ceiling: Unl
Heat Index: 90°   Visibility: 10mi
Dew Point: 69°   Wind: 13mph
Humidity: 57%   Direction: 80°E
Pressure: 29.88"   Gusts: NA
Location:  26.5°N, 97.64°W
Report Text: KHRL 202052Z 08011KT 10SM FEW041 30/21 A2988 RMK AO2 SLP117 T03000206 56023
Loading
Personal Weather Stations






























Interactive Weather Map
Tropical Storm Tracking
New forecast layout! Learn more

10-Day Weather Forecast

Advertisements
Track Severe Weather on mobile